Ukiah Municipal Airport Ukiah US
ICAO: KUKI
IATA: UKI
Category: Medium
Scheduled Services: No

Elevation: 614 ft
TransAlt. 18000 ft.

Airport Communications:
ASOS:119.275
OAKLAND CNTR:127.8
OAKLAND RDO:122
CTAF/UNICOM:123

KUKI Zoom In..

If you have problems with the map follow the link
https://www.worldairports.se/pages/airport.php?
ICAO=KUKI

Runways:

(A) RW 15 length 4423 ft width 150 ft
LOC 109.10 / hdg 151

(B) RW 33 length 4423 ft width 150 ft
LOC 109.10 / hdg 331

Location; KUKI
Day. 20 / Time. 08.56 Zulu
* Altimeter: 30.04
* Temperature: 07° c. 44.6°f.
* Wind from: 000° Speed 00 kn.
Dewpoint: 05° c.
Visibility: 10 Statute Miles.
Clouds: Clear (automated report).

KUKI 200856Z AUTO 00000KT 10SM CLR 07/05 A3004 RMK AO2 SLP172 T00670050 58003


Wind - Calm.

 
 
jpsmedia worldairports.se 2020   terms of use